createdAt,value
2023-01-02T05:39:36.524Z,55.90
2023-01-02T05:42:06.287Z,51.05
2023-01-02T05:44:38.914Z,51.00
2023-01-02T05:47:27.820Z,51.35
2023-01-02T05:49:57.170Z,58.55
2023-01-02T05:52:28.466Z,62.78
2023-01-02T05:55:03.655Z,68.32
2023-01-02T05:57:31.877Z,55.63
2023-01-02T06:02:49.018Z,58.22
2023-01-02T06:06:12.545Z,46.50
2023-01-02T06:09:21.768Z,48.60
2023-01-02T06:12:29.855Z,49.92
2023-01-02T06:20:21.798Z,59.30
2023-01-02T06:22:49.029Z,47.80
2023-01-02T06:25:22.747Z,47.95
2023-01-02T06:27:53.885Z,52.13
2023-01-02T06:30:47.506Z,58.30
2023-01-02T06:36:34.078Z,50.17
2023-01-02T06:39:32.752Z,52.17
2023-01-02T06:46:48.208Z,49.75
2023-01-02T06:50:10.261Z,50.75
2023-01-02T06:54:05.617Z,47.00
2023-01-02T06:56:53.513Z,53.42
2023-01-02T06:59:22.469Z,47.40
2023-01-02T07:01:56.708Z,51.92
2023-01-02T07:05:00.901Z,57.85
2023-01-02T07:08:11.206Z,44.78
2023-01-02T07:10:52.512Z,50.85
2023-01-02T07:13:24.412Z,53.35
2023-01-02T07:15:56.062Z,58.55
2023-01-02T07:18:32.531Z,64.88
2023-01-02T07:21:07.975Z,54.60
2023-01-02T07:26:35.181Z,53.60
2023-01-02T07:29:23.574Z,56.70
2023-01-02T07:31:58.724Z,60.75
2023-01-02T07:34:37.383Z,62.15
2023-01-02T07:37:13.389Z,56.95
2023-01-02T07:39:58.794Z,59.90
2023-01-02T07:42:47.035Z,57.88
2023-01-02T07:45:26.364Z,66.32
2023-01-02T07:48:02.094Z,65.47
2023-01-02T07:53:43.905Z,82.40
2023-01-02T07:57:05.909Z,95.72
2023-01-02T07:59:49.920Z,91.45
2023-01-02T08:02:19.643Z,93.85
2023-01-02T08:05:42.655Z,92.07
2023-01-02T08:09:04.560Z,73.45
2023-01-02T08:11:43.536Z,87.60
2023-01-02T08:14:23.617Z,100.70
2023-01-02T08:17:06.527Z,92.00
2023-01-02T08:19:53.565Z,111.90
2023-01-02T08:22:27.001Z,121.80
2023-01-02T08:24:57.334Z,117.88
2023-01-02T08:27:57.159Z,128.30
2023-01-02T08:30:58.422Z,120.72
2023-01-02T08:34:37.315Z,111.70
2023-01-02T08:37:27.195Z,142.93
2023-01-02T08:39:58.777Z,138.30
2023-01-02T08:42:33.265Z,148.50
2023-01-02T08:45:47.667Z,135.57
2023-01-02T08:48:44.068Z,132.57
2023-01-02T08:51:33.914Z,169.30
2023-01-02T08:54:30.882Z,141.48
2023-01-02T08:56:59.914Z,127.57
2023-01-02T08:59:42.428Z,143.93
2023-01-02T09:02:18.352Z,141.70
2023-01-02T09:05:13.171Z,162.07
2023-01-02T09:08:18.957Z,133.07
2023-01-02T09:11:20.558Z,107.63
2023-01-02T09:17:04.033Z,120.82
2023-01-02T09:19:40.909Z,136.20
2023-01-02T09:22:29.542Z,132.07
2023-01-02T09:25:23.732Z,143.55
2023-01-02T09:27:53.078Z,153.48
2023-01-02T09:30:20.815Z,151.65
2023-01-02T09:32:52.135Z,143.20
2023-01-02T09:35:43.169Z,135.05
2023-01-02T09:38:36.815Z,120.70
2023-01-02T09:41:36.095Z,121.32
2023-01-02T09:44:42.711Z,145.77
2023-01-02T09:50:12.928Z,122.82
2023-01-02T09:53:03.915Z,136.45
2023-01-02T09:56:17.824Z,137.07
2023-01-02T10:00:00.419Z,163.27
2023-01-02T10:03:08.609Z,128.98
2023-01-02T10:06:45.914Z,155.15
2023-01-02T10:13:08.541Z,158.20
2023-01-02T10:16:07.296Z,147.68
2023-01-02T10:19:05.731Z,143.15
2023-01-02T10:21:48.884Z,149.55
2023-01-02T10:24:46.207Z,157.65
2023-01-02T10:27:38.182Z,143.90
2023-01-02T10:30:47.334Z,130.30
2023-01-02T10:34:24.173Z,153.70
2023-01-02T10:43:53.768Z,165.48
2023-01-02T10:46:50.996Z,144.88
2023-01-02T10:50:10.358Z,153.20
2023-01-02T10:53:13.331Z,128.98
2023-01-02T10:59:25.716Z,115.20
2023-01-02T11:05:11.153Z,125.25
2023-01-02T11:07:47.815Z,131.30
2023-01-02T11:10:44.695Z,120.88
2023-01-02T11:16:14.221Z,113.82
2023-01-02T11:19:03.302Z,115.47
2023-01-02T11:21:47.198Z,126.90
2023-01-02T11:24:35.918Z,124.63
2023-01-02T11:30:22.990Z,131.43
2023-01-02T11:34:12.693Z,119.47
2023-01-02T11:37:19.288Z,120.57
2023-01-02T11:40:47.721Z,124.18
2023-01-02T11:43:55.340Z,134.43
2023-01-02T11:46:55.655Z,118.43
2023-01-02T11:50:11.569Z,120.55
2023-01-02T11:53:09.109Z,105.18
2023-01-02T11:59:45.351Z,123.43
2023-01-02T12:03:15.336Z,119.70
2023-01-02T12:06:13.100Z,140.45
2023-01-02T12:08:52.953Z,124.43
2023-01-02T12:11:35.638Z,134.57
2023-01-02T12:14:24.644Z,135.95
2023-01-02T12:17:41.629Z,129.75
2023-01-02T12:27:09.241Z,120.22
2023-01-02T12:29:48.988Z,135.00
2023-01-02T12:32:41.387Z,127.63
2023-01-02T12:39:16.302Z,136.35
2023-01-02T12:58:40.907Z,113.57
2023-01-02T13:01:23.793Z,94.63
2023-01-02T13:04:18.189Z,100.80
2023-01-02T13:06:54.036Z,100.05
2023-01-02T13:10:09.518Z,106.65
2023-01-02T13:16:18.991Z,121.78
2023-01-02T13:20:01.921Z,113.68
2023-01-02T13:23:21.995Z,111.13
2023-01-02T13:25:55.092Z,120.47
2023-01-02T13:29:03.634Z,117.78
2023-01-02T13:31:50.287Z,103.32
2023-01-02T13:34:47.123Z,114.57
2023-01-02T13:37:39.766Z,119.80
2023-01-02T13:43:20.527Z,106.07
2023-01-02T13:49:10.470Z,99.13
2023-01-02T13:52:29.336Z,106.35
2023-01-02T13:55:30.917Z,89.88
2023-01-02T13:58:35.213Z,91.50
2023-01-02T14:02:19.456Z,87.85
2023-01-02T14:05:03.157Z,82.10
2023-01-02T14:07:32.964Z,70.15
2023-01-02T14:10:48.637Z,82.03
2023-01-02T14:13:31.215Z,83.13
2023-01-02T14:16:25.872Z,86.97
2023-01-02T14:19:28.963Z,94.07
2023-01-02T14:22:08.105Z,80.95
2023-01-02T14:25:06.703Z,87.20
2023-01-02T14:28:01.067Z,111.50
2023-01-02T14:31:40.076Z,110.75
2023-01-02T14:34:41.485Z,111.95
2023-01-02T14:40:58.216Z,107.13
2023-01-02T14:46:16.231Z,104.25
2023-01-02T14:49:25.108Z,105.03
2023-01-02T14:52:14.498Z,111.93
2023-01-02T14:55:10.637Z,95.40
2023-01-02T14:58:04.093Z,98.95
2023-01-02T15:07:44.531Z,100.72
2023-01-02T15:10:18.000Z,104.22
2023-01-02T15:13:12.694Z,104.90
2023-01-02T15:15:49.612Z,93.75
2023-01-02T15:19:03.286Z,93.38
2023-01-02T15:21:45.797Z,91.32
2023-01-02T15:24:40.370Z,94.70
2023-01-02T15:30:48.390Z,107.50
2023-01-02T15:33:33.817Z,107.00
2023-01-02T15:39:06.715Z,92.72
2023-01-02T15:41:45.467Z,101.45
2023-01-02T15:47:45.320Z,102.55
2023-01-02T15:50:26.855Z,96.05
2023-01-02T15:53:15.547Z,96.10
2023-01-02T15:55:53.956Z,102.80
2023-01-02T15:58:53.618Z,108.40
2023-01-02T16:09:38.919Z,124.07
2023-01-02T16:12:51.420Z,99.25
2023-01-02T16:15:27.650Z,117.65
2023-01-02T16:18:21.492Z,110.88
2023-01-02T16:21:26.871Z,92.68
2023-01-02T16:24:09.891Z,108.72
2023-01-02T16:26:44.966Z,114.03
2023-01-02T16:29:26.719Z,104.45
2023-01-02T16:32:26.082Z,98.78
2023-01-02T16:42:08.259Z,95.32
2023-01-02T16:44:54.937Z,84.13
2023-01-02T16:50:05.617Z,89.18
2023-01-02T16:52:36.484Z,86.55
2023-01-02T16:55:10.423Z,88.03
2023-01-02T16:57:40.292Z,84.85
2023-01-02T17:00:49.336Z,91.13
2023-01-02T17:03:52.218Z,86.78
2023-01-02T17:06:47.449Z,83.60
2023-01-02T17:09:36.869Z,84.80
2023-01-02T17:12:12.043Z,89.20
2023-01-02T17:15:09.403Z,92.22
2023-01-02T17:17:47.145Z,94.60
2023-01-02T17:20:26.241Z,93.05
2023-01-02T17:23:21.681Z,92.28
2023-01-02T17:26:18.703Z,91.55
2023-01-02T17:30:03.580Z,86.53
2023-01-02T17:32:39.851Z,76.57
2023-01-02T17:35:32.386Z,83.60
2023-01-02T17:38:34.132Z,73.85
2023-01-02T17:45:10.128Z,69.65
2023-01-02T17:48:10.089Z,70.22
2023-01-02T17:51:16.812Z,73.03
2023-01-02T17:56:41.046Z,72.68
2023-01-02T17:59:13.019Z,71.60
2023-01-02T18:02:04.254Z,72.30
2023-01-02T18:11:24.310Z,76.85
2023-01-02T18:14:30.373Z,74.15
2023-01-02T18:17:42.896Z,74.05
2023-01-02T18:30:48.976Z,79.00
2023-01-02T18:33:26.419Z,73.85
2023-01-02T18:36:17.195Z,72.60
2023-01-02T18:39:46.763Z,84.60
2023-01-02T18:42:41.465Z,72.10
2023-01-02T18:45:19.377Z,70.75
2023-01-02T18:48:11.683Z,68.53
2023-01-02T18:51:08.536Z,71.05
2023-01-02T18:53:46.654Z,86.00
2023-01-02T19:00:00.588Z,75.80
2023-01-02T19:03:26.269Z,68.25
2023-01-02T19:06:30.660Z,75.80
2023-01-02T19:09:16.444Z,87.30
2023-01-02T19:12:09.614Z,84.50
2023-01-02T19:14:42.261Z,83.20
2023-01-02T19:17:46.254Z,89.97
2023-01-02T19:21:29.272Z,77.47
2023-01-02T19:24:24.325Z,83.25
2023-01-02T19:27:41.822Z,81.40
2023-01-02T19:30:47.600Z,66.60
2023-01-02T19:33:48.910Z,79.43
2023-01-02T19:36:47.336Z,84.13
2023-01-02T19:40:02.922Z,68.25
2023-01-02T19:42:55.844Z,75.85
2023-01-02T19:45:42.757Z,75.80
2023-01-02T19:48:17.772Z,68.35
2023-01-02T19:50:58.812Z,76.78
2023-01-02T19:54:09.429Z,83.80
2023-01-02T19:56:51.853Z,73.88
2023-01-02T20:02:53.420Z,74.30
2023-01-02T20:09:00.343Z,84.43
2023-01-02T20:14:58.094Z,89.65
2023-01-02T20:17:53.106Z,92.47
2023-01-02T20:20:51.821Z,101.53
2023-01-02T20:23:32.427Z,89.50
2023-01-02T20:26:18.709Z,76.68
2023-01-02T20:29:20.358Z,79.60
2023-01-02T20:32:36.242Z,84.30
2023-01-02T20:35:38.303Z,87.47
2023-01-02T20:38:20.989Z,71.72
2023-01-02T20:40:59.390Z,82.60
2023-01-02T20:46:16.868Z,77.95
2023-01-02T20:49:04.746Z,74.28
2023-01-02T20:52:05.362Z,77.25
2023-01-02T20:54:44.076Z,62.58
2023-01-02T21:00:38.769Z,71.75
2023-01-02T21:03:20.866Z,69.18
2023-01-02T21:06:11.452Z,69.97
2023-01-02T21:15:53.699Z,66.82
2023-01-02T21:21:26.103Z,62.85
2023-01-02T21:24:16.381Z,60.95
2023-01-02T21:27:18.694Z,57.53
2023-01-02T21:30:48.683Z,55.60
2023-01-02T21:33:53.138Z,57.00
2023-01-02T21:36:36.823Z,57.97
2023-01-02T21:39:21.316Z,69.95
2023-01-02T21:42:26.685Z,60.88
2023-01-02T21:47:57.840Z,53.80
2023-01-02T22:01:30.177Z,59.90
2023-01-02T22:04:06.895Z,50.63
2023-01-02T22:07:29.633Z,59.03
2023-01-02T22:10:03.733Z,56.30
2023-01-02T22:15:20.381Z,49.45
2023-01-02T22:17:56.060Z,49.63
2023-01-02T22:24:02.189Z,55.03
2023-01-02T22:33:19.237Z,51.25
2023-01-02T22:39:29.010Z,55.00
2023-01-02T22:42:49.379Z,54.88
2023-01-02T22:57:34.744Z,48.95
2023-01-02T23:00:25.700Z,44.85
2023-01-02T23:03:16.770Z,56.65
2023-01-02T23:05:52.511Z,43.97
2023-01-02T23:09:08.737Z,51.03
2023-01-02T23:18:38.860Z,45.92
2023-01-02T23:22:01.725Z,43.17
2023-01-02T23:24:52.203Z,45.88
2023-01-02T23:27:37.869Z,48.30
2023-01-02T23:30:57.555Z,56.50
2023-01-02T23:36:30.196Z,48.35
2023-01-02T23:41:57.313Z,66.43
2023-01-02T23:44:52.303Z,55.15
2023-01-02T23:47:47.430Z,52.80
2023-01-02T23:50:26.625Z,53.55
2023-01-02T23:53:37.299Z,61.63
